Time;durP1;ratioP1;P1;durP2;ratioP2;P2;SDS_P1;SDS_P2;PMS_P1;PMS_P2;Temp;Humidity;BMP_temperature;BMP_pressure;BME280_temperature;BME280_humidity;BME280_pressure;Samples;Min_cycle;Max_cycle;Signal;HPM_P1;HPM_P2
2023/04/02 00:01:36;;;;;;;1.85;0.90;;;9.50;63.00;;;;;;5073400;28;20217;-69
2023/04/02 00:04:07;;;;;;;3.90;0.88;;;9.60;62.80;;;;;;5069031;28;20571;-69
2023/04/02 00:06:43;;;;;;;6.82;1.08;;;9.50;62.70;;;;;;5074075;28;20190;-69
2023/04/02 00:09:38;;;;;;;1.85;0.70;;;9.50;63.00;;;;;;5072977;28;20213;-69
2023/04/02 00:12:18;;;;;;;2.22;0.80;;;9.50;63.10;;;;;;5026240;28;20197;-69
2023/04/02 00:14:49;;;;;;;2.15;0.60;;;9.50;63.30;;;;;;5073431;28;20227;-69
2023/04/02 00:17:16;;;;;;;2.88;0.70;;;9.50;63.30;;;;;;5073716;28;20193;-69
2023/04/02 00:19:47;;;;;;;2.10;1.00;;;9.50;63.30;;;;;;5073147;28;20189;-69
2023/04/02 00:22:18;;;;;;;1.83;0.70;;;9.50;63.60;;;;;;5073714;28;20687;-69
2023/04/02 00:24:47;;;;;;;4.40;0.90;;;9.50;63.50;;;;;;5073023;28;20277;-69
2023/04/02 00:27:15;;;;;;;2.45;0.70;;;9.40;63.60;;;;;;5073329;28;20248;-69
2023/04/02 00:29:49;;;;;;;2.10;1.00;;;9.40;63.70;;;;;;5072541;28;20287;-69
2023/04/02 00:32:22;;;;;;;2.00;1.08;;;9.40;64.00;;;;;;5072390;28;20265;-69
2023/04/02 00:34:50;;;;;;;1.98;0.82;;;9.40;64.00;;;;;;5072399;28;20190;-69
2023/04/02 00:37:26;;;;;;;2.03;0.90;;;9.30;64.00;;;;;;5073462;28;20280;-69
2023/04/02 00:40:00;;;;;;;3.25;0.90;;;9.30;64.30;;;;;;5072335;28;20185;-70
2023/04/02 00:42:31;;;;;;;1.60;0.70;;;9.30;64.20;;;;;;5073627;28;20271;-69
2023/04/02 00:45:03;;;;;;;2.25;0.60;;;9.30;64.40;;;;;;5072139;28;20197;-69
2023/04/02 00:47:35;;;;;;;1.50;0.60;;;9.30;64.40;;;;;;5073381;28;20201;-69
2023/04/02 00:50:16;;;;;;;1.60;0.70;;;9.30;64.40;;;;;;5071089;28;20182;-70
2023/04/02 00:52:49;;;;;;;3.97;0.82;;;9.20;64.80;;;;;;5073279;28;20584;-70
2023/04/02 00:55:21;;;;;;;1.80;0.82;;;9.10;65.10;;;;;;5071683;28;20637;-69
2023/04/02 00:57:50;;;;;;;1.60;0.60;;;9.10;65.40;;;;;;5073216;28;20201;-69
2023/04/02 01:00:28;;;;;;;1.70;0.88;;;9.00;65.60;;;;;;5072210;28;20190;-69
2023/04/02 01:03:33;;;;;;;2.45;0.60;;;9.00;65.90;;;;;;5073071;28;20221;-69
2023/04/02 01:06:10;;;;;;;2.42;1.10;;;9.00;66.00;;;;;;5068557;28;20641;-69
2023/04/02 01:08:54;;;;;;;3.47;1.63;;;8.90;66.20;;;;;;5072236;28;20258;-69
2023/04/02 01:11:54;;;;;;;1.80;0.65;;;8.90;66.40;;;;;;5072907;28;20208;-71
2023/04/02 01:14:45;;;;;;;4.60;2.65;;;8.80;66.60;;;;;;5067070;28;20186;-69
2023/04/02 01:17:38;;;;;;;2.92;1.73;;;8.80;66.40;;;;;;5072751;28;20190;-69
2023/04/02 01:20:46;;;;;;;2.22;1.15;;;8.80;67.00;;;;;;5071580;28;20196;-69
2023/04/02 01:23:21;;;;;;;2.15;0.85;;;8.70;66.90;;;;;;5033155;28;20224;-70
2023/04/02 01:25:57;;;;;;;2.65;0.90;;;8.60;67.00;;;;;;5071834;28;20216;-69
2023/04/02 01:28:32;;;;;;;2.55;0.70;;;8.60;67.30;;;;;;5072062;28;20203;-70
2023/04/02 01:31:03;;;;;;;4.80;1.98;;;8.60;67.10;;;;;;5071938;28;20195;-69
2023/04/02 01:33:35;;;;;;;4.30;1.27;;;8.50;67.30;;;;;;5071717;28;20181;-69
2023/04/02 01:36:08;;;;;;;3.30;1.30;;;8.40;67.60;;;;;;5061437;28;20186;-69
2023/04/02 01:38:43;;;;;;;4.15;1.20;;;8.40;67.60;;;;;;5071597;28;20261;-69
2023/04/02 01:41:17;;;;;;;2.90;1.30;;;8.30;68.10;;;;;;5072624;28;20186;-69
2023/04/02 01:43:51;;;;;;;2.65;0.95;;;8.30;68.40;;;;;;5071628;28;20238;-69
2023/04/02 01:46:31;;;;;;;2.20;0.70;;;8.30;68.60;;;;;;5071981;28;20232;-71
2023/04/02 01:49:02;;;;;;;2.83;1.00;;;8.20;68.60;;;;;;5070802;28;20216;-69
2023/04/02 01:51:33;;;;;;;3.28;1.20;;;8.20;68.90;;;;;;5072520;28;20251;-71
2023/04/02 01:54:06;;;;;;;1.90;0.70;;;8.10;69.20;;;;;;5071718;28;20182;-69
2023/04/02 01:56:38;;;;;;;2.78;0.90;;;8.10;69.20;;;;;;5072133;28;20198;-70
2023/04/02 01:59:09;;;;;;;2.00;0.93;;;8.10;69.40;;;;;;5071578;28;20280;-70
2023/04/02 02:01:42;;;;;;;3.85;1.25;;;8.00;69.70;;;;;;5072373;28;20228;-70
2023/04/02 02:04:12;;;;;;;2.00;0.90;;;8.00;69.80;;;;;;5071296;28;20557;-70
2023/04/02 02:06:44;;;;;;;2.40;0.82;;;8.00;69.80;;;;;;5072488;28;20204;-69
2023/04/02 02:09:18;;;;;;;1.80;0.60;;;8.00;69.90;;;;;;5070064;28;20235;-69
2023/04/02 02:11:50;;;;;;;2.47;0.80;;;7.90;70.10;;;;;;5071935;28;20247;-70
2023/04/02 02:14:25;;;;;;;1.83;0.70;;;7.80;70.30;;;;;;5070345;28;20190;-69
2023/04/02 02:17:02;;;;;;;1.55;0.60;;;7.80;70.70;;;;;;5072258;28;20185;-69
2023/04/02 02:19:35;;;;;;;2.83;0.80;;;7.80;70.80;;;;;;5070374;28;20273;-69
2023/04/02 02:22:10;;;;;;;2.00;0.80;;;7.70;70.90;;;;;;5071973;28;20255;-76
2023/04/02 02:24:42;;;;;;;2.10;0.70;;;7.70;71.60;;;;;;5070815;28;20263;-70
2023/04/02 02:27:46;;;;;;;1.70;0.60;;;7.70;70.90;;;;;;5071307;28;20652;-69
2023/04/02 02:30:17;;;;;;;5.93;0.90;;;7.60;71.00;;;;;;5071337;28;20236;-69
2023/04/02 02:32:55;;;;;;;2.55;0.60;;;7.60;71.30;;;;;;5071649;28;20190;-69
2023/04/02 02:35:25;;;;;;;3.45;0.77;;;7.50;71.40;;;;;;5073092;28;20189;-69
2023/04/02 02:37:57;;;;;;;2.60;0.65;;;7.50;71.30;;;;;;5075751;28;20235;-69
2023/04/02 02:40:31;;;;;;;3.85;1.00;;;7.50;71.50;;;;;;5074824;28;20185;-70
2023/04/02 02:43:05;;;;;;;1.67;0.60;;;7.50;71.80;;;;;;5075396;28;20614;-69
2023/04/02 02:45:37;;;;;;;2.05;0.60;;;7.50;72.50;;;;;;5074202;28;20220;-70
2023/04/02 02:48:12;;;;;;;1.90;0.60;;;7.50;72.70;;;;;;5076002;28;20711;-69
2023/04/02 02:50:41;;;;;;;3.47;0.70;;;7.50;72.90;;;;;;5074331;28;20192;-69
2023/04/02 02:53:17;;;;;;;1.70;0.70;;;7.50;72.40;;;;;;5075387;28;20197;-69
2023/04/02 02:55:46;;;;;;;2.10;0.95;;;7.60;72.40;;;;;;5074427;28;20189;-69
2023/04/02 02:58:17;;;;;;;1.75;0.90;;;7.60;72.40;;;;;;5075212;28;20272;-69
2023/04/02 03:00:45;;;;;;;1.90;1.13;;;7.60;72.70;;;;;;5074499;28;20186;-69
2023/04/02 03:03:18;;;;;;;2.00;0.80;;;7.50;73.00;;;;;;5075104;28;20213;-69
2023/04/02 03:05:51;;;;;;;2.00;0.98;;;7.50;73.10;;;;;;5074356;28;20185;-69
2023/04/02 03:08:23;;;;;;;3.42;1.55;;;7.60;73.20;;;;;;5075218;28;20697;-69
2023/04/02 03:10:58;;;;;;;1.60;0.70;;;7.60;72.80;;;;;;5073666;28;20190;-69
2023/04/02 03:13:34;;;;;;;1.80;0.80;;;7.50;73.20;;;;;;5075276;28;20205;-71
2023/04/02 03:16:09;;;;;;;2.10;0.82;;;7.50;73.50;;;;;;5074448;28;20259;-69
2023/04/02 03:18:43;;;;;;;2.90;0.70;;;7.50;73.50;;;;;;5073866;28;20215;-69
2023/04/02 03:21:19;;;;;;;1.80;0.80;;;7.50;73.60;;;;;;5073865;28;20170;-69
2023/04/02 03:23:51;;;;;;;1.98;0.85;;;7.50;73.10;;;;;;5074961;28;20217;-69
2023/04/02 03:26:22;;;;;;;1.60;0.65;;;7.60;72.80;;;;;;5073748;28;20704;-69
2023/04/02 03:28:59;;;;;;;2.00;0.95;;;7.50;73.20;;;;;;5074944;28;20255;-69
2023/04/02 03:31:32;;;;;;;5.93;1.20;;;7.50;73.30;;;;;;5074704;28;20221;-69
2023/04/02 03:34:09;;;;;;;1.75;0.93;;;7.50;73.30;;;;;;5075032;28;20193;-69
2023/04/02 03:36:42;;;;;;;2.55;1.00;;;7.50;73.00;;;;;;5073451;28;20192;-69
2023/04/02 03:39:17;;;;;;;1.92;1.10;;;7.50;73.40;;;;;;5073429;28;20644;-69
2023/04/02 03:41:50;;;;;;;1.73;0.82;;;7.40;73.20;;;;;;5074096;28;20196;-69
2023/04/02 03:44:26;;;;;;;5.10;1.60;;;7.40;73.60;;;;;;5074291;28;20273;-69
2023/04/02 03:47:09;;;;;;;2.63;0.88;;;7.30;73.70;;;;;;5074663;28;20190;-69
2023/04/02 03:49:43;;;;;;;1.83;0.98;;;7.40;74.20;;;;;;5073807;28;20232;-70
2023/04/02 03:52:13;;;;;;;4.20;2.40;;;7.40;74.30;;;;;;5074366;28;20193;-70
2023/04/02 03:54:42;;;;;;;2.55;1.45;;;7.40;74.30;;;;;;5073163;28;20186;-70
2023/04/02 03:57:18;;;;;;;3.45;1.10;;;7.40;74.30;;;;;;5074093;28;20675;-69
2023/04/02 03:59:54;;;;;;;1.88;0.80;;;7.40;75.20;;;;;;5073547;28;20195;-69
2023/04/02 04:02:34;;;;;;;2.45;1.15;;;7.30;74.70;;;;;;5074358;28;20216;-69
2023/04/02 04:05:05;;;;;;;2.10;0.90;;;7.30;74.90;;;;;;5073331;28;20199;-70
2023/04/02 04:07:40;;;;;;;3.00;1.10;;;7.30;75.00;;;;;;5074184;28;20231;-69
2023/04/02 04:10:09;;;;;;;2.13;1.02;;;7.30;75.00;;;;;;5072862;28;20564;-69
2023/04/02 04:12:42;;;;;;;2.40;1.70;;;7.30;74.90;;;;;;5073802;28;20190;-69
2023/04/02 04:15:17;;;;;;;2.63;1.75;;;7.30;74.80;;;;;;5073283;28;20247;-70
2023/04/02 04:17:52;;;;;;;2.75;1.75;;;7.20;74.80;;;;;;5074214;28;20190;-69
2023/04/02 04:20:26;;;;;;;2.83;1.70;;;7.20;74.70;;;;;;5073416;28;20192;-69
2023/04/02 04:22:54;;;;;;;2.05;1.10;;;7.20;74.90;;;;;;5073969;28;20630;-69
2023/04/02 04:25:29;;;;;;;1.90;1.10;;;7.20;75.10;;;;;;5072368;28;20197;-69
2023/04/02 04:28:07;;;;;;;2.22;1.23;;;7.20;75.10;;;;;;5073944;28;20697;-68
2023/04/02 04:30:47;;;;;;;3.75;1.30;;;7.20;75.20;;;;;;5072938;28;20632;-69
2023/04/02 04:33:22;;;;;;;2.25;1.20;;;7.20;75.40;;;;;;5072771;28;20185;-69
2023/04/02 04:36:03;;;;;;;3.22;1.35;;;7.20;75.60;;;;;;5073454;28;20193;-69
2023/04/02 04:38:33;;;;;;;6.38;1.70;;;7.10;75.90;;;;;;5071749;28;20185;-70
2023/04/02 04:41:05;;;;;;;2.00;1.23;;;7.10;76.30;;;;;;5073657;28;20282;-70
2023/04/02 04:43:45;;;;;;;2.50;0.90;;;7.00;76.60;;;;;;5072521;28;20217;-69
2023/04/02 04:46:16;;;;;;;2.50;1.25;;;7.00;77.50;;;;;;5073677;28;20217;-69
2023/04/02 04:48:53;;;;;;;2.05;0.77;;;6.90;76.70;;;;;;5071465;28;20185;-69
2023/04/02 04:51:25;;;;;;;6.10;1.40;;;6.90;76.70;;;;;;5073143;28;20197;-69
2023/04/02 04:53:55;;;;;;;2.00;1.10;;;6.90;77.00;;;;;;5072191;28;20186;-69
2023/04/02 04:56:26;;;;;;;2.15;0.93;;;6.90;77.30;;;;;;5073400;28;20225;-69
2023/04/02 04:59:03;;;;;;;2.80;0.95;;;6.90;77.50;;;;;;5071543;28;20182;-69
2023/04/02 05:01:46;;;;;;;2.00;1.02;;;6.90;77.60;;;;;;5073360;28;20653;-69
2023/04/02 05:04:18;;;;;;;2.70;1.15;;;6.90;77.90;;;;;;5071161;28;20213;-69
2023/04/02 05:06:54;;;;;;;2.92;0.88;;;7.00;78.00;;;;;;5073127;28;20236;-69
2023/04/02 05:09:29;;;;;;;2.90;0.95;;;7.00;78.00;;;;;;5071879;28;20255;-69
2023/04/02 05:12:06;;;;;;;3.58;0.90;;;7.10;78.00;;;;;;5072963;28;20284;-69
2023/04/02 05:14:51;;;;;;;1.80;0.70;;;7.10;78.80;;;;;;5072074;28;20181;-71
2023/04/02 05:17:25;;;;;;;2.00;1.10;;;7.20;77.90;;;;;;5073009;28;20190;-69
2023/04/02 05:20:00;;;;;;;1.90;0.90;;;7.20;77.80;;;;;;5071817;28;20185;-69
2023/04/02 05:22:37;;;;;;;2.13;0.90;;;7.20;77.60;;;;;;5072830;28;21129;-75
2023/04/02 05:25:18;;;;;;;2.30;1.10;;;7.30;77.60;;;;;;5070927;28;20199;-69
2023/04/02 05:27:53;;;;;;;2.50;1.25;;;7.30;77.60;;;;;;5071131;28;20644;-69
2023/04/02 05:30:48;;;;;;;2.42;1.17;;;7.30;78.30;;;;;;5053066;28;20649;-69
2023/04/02 05:33:22;;;;;;;3.22;0.98;;;7.30;77.60;;;;;;5067929;28;20340;-69
2023/04/02 05:35:57;;;;;;;1.88;0.90;;;7.30;77.90;;;;;;5072559;28;20205;-69
2023/04/02 05:38:28;;;;;;;1.90;1.00;;;7.30;78.10;;;;;;5071785;28;20640;-69
2023/04/02 05:41:02;;;;;;;1.90;0.70;;;7.30;78.20;;;;;;5072680;28;20193;-69
2023/04/02 05:43:36;;;;;;;3.85;1.05;;;7.30;78.10;;;;;;5071731;28;20225;-69
2023/04/02 05:46:15;;;;;;;4.55;1.00;;;7.40;78.10;;;;;;5072542;28;20546;-70
2023/04/02 05:48:50;;;;;;;2.83;1.10;;;7.50;77.80;;;;;;5071897;28;20212;-69
2023/04/02 05:51:24;;;;;;;4.75;1.20;;;7.50;77.10;;;;;;5072507;28;20180;-69
2023/04/02 05:53:56;;;;;;;3.13;1.00;;;7.50;76.70;;;;;;5071830;28;20239;-69
2023/04/02 05:56:32;;;;;;;3.22;1.20;;;7.40;76.70;;;;;;5067323;28;20216;-70
2023/04/02 05:59:06;;;;;;;6.05;1.42;;;7.40;76.70;;;;;;5065842;28;20190;-71
2023/04/02 06:01:39;;;;;;;1.83;0.73;;;7.40;76.40;;;;;;5068906;28;20182;-69
2023/04/02 06:04:16;;;;;;;3.72;1.10;;;7.40;76.80;;;;;;5066684;28;20217;-69
2023/04/02 06:06:52;;;;;;;3.95;1.65;;;7.30;77.20;;;;;;5068389;28;20231;-69
2023/04/02 06:09:31;;;;;;;3.25;1.45;;;7.30;77.90;;;;;;5066592;28;20217;-72
2023/04/02 06:12:12;;;;;;;3.75;2.05;;;7.30;78.60;;;;;;5073788;28;20189;-70
2023/04/02 06:14:39;;;;;;;3.30;1.80;;;7.40;78.90;;;;;;5071956;28;20289;-70
2023/04/02 06:17:07;;;;;;;3.50;1.65;;;7.50;78.00;;;;;;5071673;28;20194;-69
2023/04/02 06:19:38;;;;;;;3.17;1.77;;;7.60;78.00;;;;;;5073231;28;20193;-69
2023/04/02 06:22:15;;;;;;;2.72;1.30;;;7.80;77.70;;;;;;5074121;28;20198;-70
2023/04/02 06:24:47;;;;;;;3.13;1.40;;;8.00;77.60;;;;;;5073807;28;20217;-70
2023/04/02 06:27:18;;;;;;;2.38;1.10;;;8.20;77.80;;;;;;5074258;28;20189;-69
2023/04/02 06:29:54;;;;;;;2.25;1.35;;;8.50;77.20;;;;;;5074123;28;20190;-70
2023/04/02 06:32:26;;;;;;;2.08;1.30;;;8.70;75.20;;;;;;5070622;28;20182;-69
2023/04/02 06:34:54;;;;;;;2.13;1.10;;;9.00;73.90;;;;;;5074259;28;20189;-69
2023/04/02 06:37:27;;;;;;;3.35;1.20;;;9.10;73.50;;;;;;5073988;28;20648;-70
2023/04/02 06:39:57;;;;;;;4.55;2.17;;;9.30;73.50;;;;;;5071904;28;20217;-70
2023/04/02 06:42:28;;;;;;;2.20;1.08;;;9.60;73.20;;;;;;5074146;28;20270;-69
2023/04/02 06:44:55;;;;;;;4.53;1.67;;;9.80;72.00;;;;;;5073732;28;20245;-69
2023/04/02 06:47:30;;;;;;;2.92;1.40;;;10.00;69.80;;;;;;5074222;28;20198;-69
2023/04/02 06:50:04;;;;;;;4.18;1.60;;;10.10;68.30;;;;;;5074242;28;20216;-69
2023/04/02 06:52:37;;;;;;;4.07;1.30;;;10.20;68.10;;;;;;5070379;28;20660;-69
2023/04/02 06:55:26;;;;;;;2.95;1.00;;;10.30;66.70;;;;;;5070689;28;20288;-70
2023/04/02 06:57:54;;;;;;;4.93;2.30;;;10.50;66.10;;;;;;5070340;28;20296;-69
2023/04/02 07:00:28;;;;;;;5.95;2.55;;;10.50;65.40;;;;;;5073586;28;20198;-70
2023/04/02 07:03:05;;;;;;;3.40;1.33;;;10.60;65.40;;;;;;5069689;28;20189;-70
2023/04/02 07:05:32;;;;;;;4.13;1.13;;;10.80;65.20;;;;;;5073066;28;20190;-70
2023/04/02 07:08:01;;;;;;;3.05;1.30;;;11.10;64.40;;;;;;5073047;28;20674;-71
2023/04/02 07:10:30;;;;;;;2.00;1.10;;;11.50;63.90;;;;;;5073285;28;20229;-71
2023/04/02 07:13:01;;;;;;;3.08;1.10;;;11.90;62.90;;;;;;5073613;28;20706;-70
2023/04/02 07:15:29;;;;;;;3.20;1.10;;;12.30;61.90;;;;;;5072847;28;20555;-70
2023/04/02 07:17:58;;;;;;;2.85;1.00;;;12.60;59.60;;;;;;5072834;28;20591;-70
2023/04/02 07:20:29;;;;;;;7.43;2.95;;;12.70;58.80;;;;;;5072934;28;20255;-70
2023/04/02 07:22:57;;;;;;;5.55;1.13;;;12.70;58.40;;;;;;5072531;28;20194;-71
2023/04/02 07:25:25;;;;;;;2.25;0.98;;;12.80;57.40;;;;;;5072568;28;20215;-74
2023/04/02 07:28:00;;;;;;;5.05;1.00;;;12.70;57.30;;;;;;5072984;28;20241;-70
2023/04/02 07:30:36;;;;;;;3.20;1.30;;;12.70;57.30;;;;;;5072609;28;20217;-70
2023/04/02 07:33:13;;;;;;;3.10;2.00;;;12.70;57.60;;;;;;5073236;28;20657;-70
2023/04/02 07:35:40;;;;;;;3.22;1.85;;;12.70;56.90;;;;;;5072766;28;20212;-70
2023/04/02 07:38:12;;;;;;;2.00;0.95;;;12.70;56.80;;;;;;5072905;28;20189;-74
2023/04/02 07:40:40;;;;;;;2.97;1.20;;;12.70;56.10;;;;;;5072682;28;20689;-72
2023/04/02 07:43:08;;;;;;;6.10;1.20;;;12.70;56.40;;;;;;5071417;28;20197;-70
2023/04/02 07:45:35;;;;;;;2.10;0.80;;;12.70;56.50;;;;;;5072611;28;20186;-69
2023/04/02 07:48:05;;;;;;;2.25;0.95;;;12.70;56.20;;;;;;5073306;28;20198;-71
2023/04/02 07:50:32;;;;;;;2.53;0.70;;;12.70;56.10;;;;;;5073427;28;20197;-70
2023/04/02 07:53:05;;;;;;;4.28;1.10;;;12.70;55.90;;;;;;5073369;28;20660;-70
2023/04/02 07:55:32;;;;;;;1.83;1.13;;;12.60;55.50;;;;;;5072673;28;20255;-70
2023/04/02 07:58:00;;;;;;;2.47;1.05;;;12.60;55.20;;;;;;5070672;28;20228;-70
2023/04/02 08:00:29;;;;;;;3.45;0.90;;;12.60;55.40;;;;;;5072096;28;20186;-70
2023/04/02 08:03:01;;;;;;;2.30;0.90;;;12.70;55.70;;;;;;5071574;28;20190;-70
2023/04/02 08:05:30;;;;;;;2.60;1.10;;;12.90;55.50;;;;;;5072914;28;20197;-70
2023/04/02 08:07:57;;;;;;;3.87;1.03;;;13.90;54.50;;;;;;5071671;28;20640;-70
2023/04/02 08:10:32;;;;;;;1.73;0.90;;;15.10;51.60;;;;;;5070776;28;20529;-70
2023/04/02 08:13:07;;;;;;;2.43;1.00;;;16.00;49.80;;;;;;5072924;28;20478;-72
2023/04/02 08:15:36;;;;;;;3.20;1.00;;;17.10;47.20;;;;;;5064683;28;20848;-70
2023/04/02 08:18:05;;;;;;;2.60;1.00;;;18.00;45.00;;;;;;5070452;28;20981;-73
2023/04/02 08:20:33;;;;;;;2.10;0.80;;;18.30;42.30;;;;;;5071453;28;20759;-72
2023/04/02 08:23:01;;;;;;;2.67;0.90;;;18.50;41.20;;;;;;5071527;28;20535;-71
2023/04/02 08:25:29;;;;;;;2.00;0.70;;;18.60;40.70;;;;;;5071779;28;20491;-71
2023/04/02 08:28:01;;;;;;;2.97;1.20;;;18.50;40.00;;;;;;5071580;28;20440;-70
2023/04/02 08:30:29;;;;;;;3.00;1.20;;;18.60;40.30;;;;;;5071377;28;20981;-71
2023/04/02 08:32:57;;;;;;;2.77;0.97;;;18.80;40.70;;;;;;5069693;28;20845;-71
2023/04/02 08:35:25;;;;;;;1.80;0.80;;;18.60;38.80;;;;;;5071607;28;20441;-70
2023/04/02 08:37:52;;;;;;;1.90;0.80;;;18.40;39.60;;;;;;5068972;28;20470;-71
2023/04/02 08:40:24;;;;;;;2.90;0.90;;;18.00;39.30;;;;;;5067395;28;20530;-71
2023/04/02 08:43:20;;;;;;;2.77;0.90;;;17.70;39.30;;;;;;5067590;28;20922;-70
2023/04/02 08:46:04;;;;;;;2.70;1.00;;;17.50;39.80;;;;;;5055552;28;20467;-71
2023/04/02 08:48:44;;;;;;;2.57;0.80;;;17.40;40.10;;;;;;5069355;28;20989;-70
2023/04/02 08:51:22;;;;;;;2.40;1.07;;;17.50;40.00;;;;;;5067100;28;20973;-71
2023/04/02 08:53:59;;;;;;;1.97;1.00;;;17.70;39.40;;;;;;5070874;28;20526;-73
2023/04/02 08:56:36;;;;;;;2.80;0.80;;;18.40;39.60;;;;;;5065990;28;20860;-71
2023/04/02 08:59:09;;;;;;;7.80;1.00;;;19.20;38.30;;;;;;5071757;28;20435;-71
2023/04/02 09:01:47;;;;;;;1.80;0.70;;;19.20;36.90;;;;;;5068331;28;20435;-70
2023/04/02 09:04:18;;;;;;;4.23;1.23;;;18.70;36.00;;;;;;5070760;28;20521;-70
2023/04/02 09:06:46;;;;;;;3.80;1.00;;;18.00;36.10;;;;;;5067667;28;20781;-70
2023/04/02 09:09:19;;;;;;;2.10;1.00;;;17.30;37.30;;;;;;5069266;28;20875;-70
2023/04/02 09:11:54;;;;;;;1.90;0.77;;;16.70;38.40;;;;;;5071380;28;20918;-70
2023/04/02 09:14:31;;;;;;;2.13;1.00;;;16.30;39.40;;;;;;5067163;28;20439;-70
2023/04/02 09:17:01;;;;;;;2.53;1.00;;;15.90;40.30;;;;;;5071175;28;20451;-70
2023/04/02 09:19:38;;;;;;;1.77;0.87;;;15.70;41.60;;;;;;5070812;28;20443;-72
2023/04/02 09:22:11;;;;;;;4.33;1.17;;;15.70;41.50;;;;;;5071151;28;20435;-71
2023/04/02 09:24:39;;;;;;;1.90;0.80;;;15.90;41.20;;;;;;5070661;28;20505;-71
2023/04/02 09:27:18;;;;;;;2.53;0.93;;;15.90;41.40;;;;;;5070787;28;20991;-70
2023/04/02 09:29:47;;;;;;;2.00;1.00;;;15.70;41.50;;;;;;5070658;28;20530;-72
2023/04/02 09:32:43;;;;;;;2.37;0.90;;;15.40;41.60;;;;;;5071089;28;20432;-71
2023/04/02 09:35:15;;;;;;;2.77;0.80;;;15.10;42.20;;;;;;5067577;28;20436;-70
2023/04/02 09:37:48;;;;;;;2.20;0.97;;;14.80;43.00;;;;;;5071148;28;20844;-71
2023/04/02 09:40:30;;;;;;;2.23;1.00;;;14.60;44.00;;;;;;5071102;28;20973;-71
2023/04/02 09:43:11;;;;;;;1.80;0.80;;;14.50;44.10;;;;;;5070757;28;20440;-70
2023/04/02 09:45:55;;;;;;;2.67;0.80;;;14.50;44.00;;;;;;5069955;28;20488;-71
2023/04/02 09:48:30;;;;;;;1.97;0.90;;;14.60;44.20;;;;;;5066677;28;20439;-71
2023/04/02 09:51:13;;;;;;;1.67;0.70;;;14.90;43.90;;;;;;5071169;28;20802;-70
2023/04/02 09:54:06;;;;;;;4.60;2.13;;;15.00;43.30;;;;;;5067682;28;20821;-72
2023/04/02 09:56:35;;;;;;;3.60;1.00;;;15.20;43.50;;;;;;5062813;28;20770;-72
2023/04/02 09:59:26;;;;;;;6.13;1.37;;;15.40;43.00;;;;;;5064401;28;20444;-71
2023/04/02 10:02:02;;;;;;;2.07;1.00;;;16.20;42.60;;;;;;5069917;28;20791;-71
2023/04/02 10:04:42;;;;;;;2.00;0.70;;;16.90;42.10;;;;;;5069077;28;20714;-72
2023/04/02 10:07:56;;;;;;;3.07;0.70;;;17.40;41.00;;;;;;5069344;28;20529;-73
2023/04/02 10:10:29;;;;;;;1.80;0.60;;;17.60;39.80;;;;;;5065385;28;20467;-75
2023/04/02 10:13:04;;;;;;;2.20;0.60;;;17.50;40.60;;;;;;5067034;28;20930;-71
2023/04/02 10:15:35;;;;;;;1.90;0.80;;;17.20;39.90;;;;;;5070217;28;20447;-71
2023/04/02 10:18:11;;;;;;;3.33;0.70;;;17.10;41.10;;;;;;5070411;28;20463;-72
2023/04/02 10:20:41;;;;;;;1.60;0.50;;;17.70;40.50;;;;;;5066502;28;20458;-72
2023/04/02 10:23:16;;;;;;;1.73;0.63;;;18.80;40.30;;;;;;5070645;28;20431;-72
2023/04/02 10:25:52;;;;;;;1.70;0.53;;;20.40;38.80;;;;;;5069593;28;20525;-70
2023/04/02 10:28:33;;;;;;;2.70;0.73;;;22.90;34.90;;;;;;5070042;28;21008;-69
2023/04/02 10:31:08;;;;;;;2.13;0.73;;;22.90;32.70;;;;;;5066049;28;20436;-69
2023/04/02 10:33:37;;;;;;;2.27;0.57;;;22.20;32.50;;;;;;5070103;28;20432;-70
2023/04/02 10:36:10;;;;;;;2.00;0.67;;;21.50;33.10;;;;;;5069860;28;20432;-70
2023/04/02 10:38:48;;;;;;;2.70;0.70;;;20.90;35.00;;;;;;5069223;28;20462;-69
2023/04/02 10:41:25;;;;;;;1.90;0.60;;;20.60;35.20;;;;;;5068039;28;20513;-71
2023/04/02 10:44:31;;;;;;;2.70;0.70;;;20.30;35.90;;;;;;5070302;28;20856;-72
2023/04/02 10:47:10;;;;;;;2.90;0.80;;;20.00;37.10;;;;;;5053851;28;20442;-73
2023/04/02 10:49:47;;;;;;;2.30;0.67;;;19.60;38.90;;;;;;5066543;28;20493;-72
2023/04/02 10:52:20;;;;;;;1.70;0.60;;;18.90;39.60;;;;;;5067047;28;20440;-72
2023/04/02 10:54:51;;;;;;;1.80;0.63;;;18.20;40.40;;;;;;5066708;28;20444;-71
2023/04/02 10:57:30;;;;;;;1.70;0.60;;;17.60;39.40;;;;;;5071597;28;20936;-72
2023/04/02 11:00:06;;;;;;;2.17;0.80;;;17.20;40.90;;;;;;5070087;28;20523;-71
2023/04/02 11:02:39;;;;;;;1.87;0.70;;;17.10;42.10;;;;;;5071589;28;20435;-72
2023/04/02 11:05:22;;;;;;;4.17;0.70;;;17.10;43.40;;;;;;5067731;28;20566;-72
2023/04/02 11:07:58;;;;;;;2.00;0.77;;;18.80;44.80;;;;;;5072465;28;20439;-70
2023/04/02 11:10:32;;;;;;;3.73;0.87;;;23.30;37.10;;;;;;5073001;28;20498;-69
2023/04/02 11:13:14;;;;;;;2.23;0.70;;;23.50;32.50;;;;;;5071832;28;20471;-70
2023/04/02 11:15:42;;;;;;;2.27;0.70;;;22.40;31.70;;;;;;5068188;28;20428;-69
2023/04/02 11:18:28;;;;;;;2.23;0.80;;;21.10;32.90;;;;;;5068676;28;20497;-70
2023/04/02 11:21:03;;;;;;;1.70;0.60;;;20.00;36.20;;;;;;5070565;28;20436;-69
2023/04/02 11:23:36;;;;;;;2.00;0.60;;;19.10;38.20;;;;;;5072139;28;20436;-72
2023/04/02 11:26:42;;;;;;;2.20;0.70;;;18.30;39.80;;;;;;5070620;28;20464;-70
2023/04/02 11:29:28;;;;;;;2.93;0.70;;;17.60;41.70;;;;;;5070030;28;20511;-69
2023/04/02 11:32:28;;;;;;;1.50;0.50;;;16.90;42.90;;;;;;5069896;28;20432;-70
2023/04/02 11:35:02;;;;;;;2.67;1.00;;;16.40;43.40;;;;;;5068942;28;20459;-70
2023/04/02 11:37:35;;;;;;;1.90;0.60;;;16.00;44.60;;;;;;5071071;28;20444;-70
2023/04/02 11:40:22;;;;;;;1.60;0.67;;;15.60;45.20;;;;;;5071549;28;20448;-70
2023/04/02 11:42:51;;;;;;;3.20;0.80;;;15.30;47.30;;;;;;5072224;28;20535;-69
2023/04/02 11:45:55;;;;;;;1.70;0.70;;;15.10;49.50;;;;;;5070733;28;20966;-70
2023/04/02 11:48:30;;;;;;;2.33;1.03;;;15.00;49.80;;;;;;5071858;28;20432;-70
2023/04/02 11:51:03;;;;;;;5.87;0.90;;;15.00;51.30;;;;;;5066598;28;20786;-72
2023/04/02 11:53:34;;;;;;;2.60;1.30;;;15.10;50.70;;;;;;5068074;28;20432;-70
2023/04/02 11:56:27;;;;;;;1.83;0.50;;;15.30;50.50;;;;;;5064983;28;20950;-70
2023/04/02 11:59:07;;;;;;;1.77;0.70;;;15.90;49.00;;;;;;5067380;28;20436;-69
2023/04/02 12:01:45;;;;;;;2.73;1.20;;;16.90;45.80;;;;;;5066672;28;20531;-71
2023/04/02 12:04:30;;;;;;;2.47;0.83;;;18.70;43.60;;;;;;5071772;28;20440;-70
2023/04/02 12:07:33;;;;;;;3.30;1.13;;;19.20;41.60;;;;;;5069276;28;20791;-70
2023/04/02 12:10:04;;;;;;;3.30;1.00;;;19.00;40.20;;;;;;5026994;28;20487;-74
2023/04/02 12:12:36;;;;;;;1.77;0.80;;;18.70;41.20;;;;;;5066079;28;20838;-70
2023/04/02 12:15:09;;;;;;;3.03;0.70;;;18.30;41.30;;;;;;5071842;28;20805;-69
2023/04/02 12:17:37;;;;;;;2.10;0.70;;;18.00;42.10;;;;;;5071568;28;20440;-71
2023/04/02 12:20:20;;;;;;;1.83;0.70;;;17.70;42.30;;;;;;5066027;28;20501;-71
2023/04/02 12:22:50;;;;;;;1.93;0.77;;;17.50;43.00;;;;;;5068908;28;20451;-71
2023/04/02 12:25:33;;;;;;;1.97;0.90;;;17.20;44.40;;;;;;5067231;28;20472;-69
2023/04/02 12:28:21;;;;;;;2.43;1.17;;;17.00;44.70;;;;;;5070826;28;20458;-71
2023/04/02 12:30:50;;;;;;;2.00;0.70;;;16.70;45.00;;;;;;5068019;28;20446;-70
2023/04/02 12:33:32;;;;;;;1.70;0.73;;;16.60;45.40;;;;;;5072126;28;20443;-70
2023/04/02 12:36:00;;;;;;;1.97;0.90;;;16.40;45.90;;;;;;5070668;28;20447;-70
2023/04/02 12:38:29;;;;;;;2.20;0.73;;;16.30;45.10;;;;;;5071820;28;20763;-70
2023/04/02 12:40:58;;;;;;;2.77;0.90;;;16.20;45.80;;;;;;5072108;28;20482;-71
2023/04/02 12:43:27;;;;;;;1.70;0.70;;;16.30;46.30;;;;;;5070179;28;20958;-70
2023/04/02 12:46:01;;;;;;;1.90;0.80;;;16.60;45.90;;;;;;5067072;28;20475;-72
2023/04/02 12:48:31;;;;;;;1.73;0.73;;;17.30;46.30;;;;;;5070223;28;20934;-70
2023/04/02 12:51:01;;;;;;;2.10;0.70;;;18.40;44.20;;;;;;5069762;28;20464;-70
2023/04/02 12:53:33;;;;;;;1.67;0.60;;;19.20;42.60;;;;;;5071002;28;20451;-70
2023/04/02 12:56:03;;;;;;;2.13;0.70;;;20.00;41.90;;;;;;5069376;28;20476;-70
2023/04/02 12:58:36;;;;;;;1.70;0.70;;;21.00;40.30;;;;;;5069370;28;20432;-72
2023/04/02 13:01:13;;;;;;;1.80;0.73;;;22.00;37.70;;;;;;5067255;28;20436;-70
2023/04/02 13:03:41;;;;;;;1.70;0.57;;;22.00;35.10;;;;;;5069949;28;20470;-70
2023/04/02 13:06:23;;;;;;;2.73;0.90;;;21.50;34.90;;;;;;5067840;28;20944;-70
2023/04/02 13:08:55;;;;;;;2.20;0.80;;;21.10;35.40;;;;;;5069425;28;20500;-69
2023/04/02 13:11:23;;;;;;;2.23;0.90;;;20.50;35.80;;;;;;5070076;28;20479;-70
2023/04/02 13:14:02;;;;;;;1.50;0.50;;;20.10;36.30;;;;;;5069511;28;20444;-70
2023/04/02 13:16:36;;;;;;;1.50;0.60;;;19.60;36.60;;;;;;5069737;28;20519;-71
2023/04/02 13:19:23;;;;;;;1.50;0.50;;;19.30;37.30;;;;;;5068853;28;20440;-70
2023/04/02 13:21:53;;;;;;;1.50;0.50;;;18.80;37.60;;;;;;5066585;28;20981;-69
2023/04/02 13:24:32;;;;;;;1.50;0.50;;;18.40;38.30;;;;;;5066422;28;20441;-70
2023/04/02 13:27:05;;;;;;;1.70;0.60;;;18.00;39.90;;;;;;5067261;28;20555;-70
2023/04/02 13:29:33;;;;;;;2.23;0.60;;;17.60;41.30;;;;;;5069562;28;20424;-69
2023/04/02 13:32:03;;;;;;;1.97;0.60;;;17.30;41.60;;;;;;5068811;28;20486;-70
2023/04/02 13:34:33;;;;;;;1.97;0.60;;;16.90;42.10;;;;;;5070003;28;20432;-70